createdAt,value
2023-03-04T00:03:39.026Z,-2.75
2023-03-04T00:23:39.039Z,-2.82
2023-03-04T00:43:39.068Z,-2.98
2023-03-04T01:03:39.198Z,-3.13
2023-03-04T01:23:39.264Z,-3.33
2023-03-04T01:43:39.275Z,-3.44
2023-03-04T02:03:39.219Z,-3.19
2023-03-04T02:23:39.423Z,-2.87
2023-03-04T02:43:39.424Z,-2.59
2023-03-04T03:03:39.583Z,-2.28
2023-03-04T03:23:39.498Z,-2.12
2023-03-04T03:43:39.523Z,-2.11
2023-03-04T04:03:39.701Z,-1.98
2023-03-04T04:23:39.733Z,-1.69
2023-03-04T04:43:39.723Z,-1.54
2023-03-04T05:03:39.896Z,-1.48
2023-03-04T05:23:39.906Z,-1.28
2023-03-04T05:43:39.958Z,-1.1
2023-03-04T06:03:40.103Z,-0.89
2023-03-04T06:23:40.069Z,-0.71
2023-03-04T06:43:40.181Z,-0.54
2023-03-04T07:03:40.126Z,-0.33
2023-03-04T07:23:40.200Z,0.08
2023-03-04T07:43:40.284Z,0.27
2023-03-04T08:03:40.316Z,0.52
2023-03-04T08:23:40.394Z,0.6
2023-03-04T08:43:40.485Z,1.01
2023-03-04T09:03:40.482Z,1.46
2023-03-04T09:23:40.486Z,2
2023-03-04T09:43:40.613Z,1.97
2023-03-04T10:03:40.648Z,2.33
2023-03-04T10:23:40.610Z,3.21
2023-03-04T10:43:40.726Z,3.76
2023-03-04T11:03:40.706Z,4.27
2023-03-04T11:23:40.787Z,4.71
2023-03-04T11:43:40.796Z,4.82
2023-03-04T12:03:41.037Z,4.81
2023-03-04T12:23:40.910Z,5.03
2023-03-04T12:43:40.962Z,4.79
2023-03-04T13:03:41.158Z,4.72
2023-03-04T13:23:41.102Z,4.81
2023-03-04T13:43:41.130Z,4.71
2023-03-04T14:03:42.382Z,4.66
2023-03-04T14:23:41.162Z,4.75
2023-03-04T14:43:41.191Z,4.88
2023-03-04T15:03:41.314Z,5.04
2023-03-04T15:23:41.353Z,5.11
2023-03-04T15:43:41.382Z,5.01
2023-03-04T16:03:41.462Z,5.02
2023-03-04T16:23:41.468Z,5
2023-03-04T16:43:41.579Z,4.9
2023-03-04T17:03:41.583Z,4.84
2023-03-04T17:23:41.640Z,4.78
2023-03-04T17:43:41.686Z,4.69
2023-03-04T18:03:41.662Z,4.66
2023-03-04T18:23:41.796Z,4.58
2023-03-04T18:43:41.776Z,4.37
2023-03-04T19:03:41.921Z,4.13
2023-03-04T19:23:41.885Z,3.91
2023-03-04T19:43:41.785Z,3.71
2023-03-04T20:03:42.061Z,3.64
2023-03-04T20:23:41.942Z,3.36
2023-03-04T20:43:41.964Z,3.25
2023-03-04T21:03:42.063Z,3.18
2023-03-04T21:23:42.171Z,3.17
2023-03-04T21:43:42.128Z,3.21
2023-03-04T22:03:42.419Z,3.11
2023-03-04T22:23:42.256Z,3.15
2023-03-04T22:43:42.541Z,3.19
2023-03-04T23:03:42.410Z,3.16
2023-03-04T23:23:42.602Z,3.18
2023-03-04T23:43:42.565Z,3.19
